sensor_id;sensor_type;location;lat;lon;timestamp;temperature;humidity
58951;DHT22;44730;53.158;6.398;2023-04-03T00:01:06;2.20;99.90
58951;DHT22;44730;53.158;6.398;2023-04-03T00:03:32;2.20;99.90
58951;DHT22;44730;53.158;6.398;2023-04-03T00:05:58;2.20;99.90
58951;DHT22;44730;53.158;6.398;2023-04-03T00:08:24;2.20;99.90
58951;DHT22;44730;53.158;6.398;2023-04-03T00:10:50;2.20;99.90
58951;DHT22;44730;53.158;6.398;2023-04-03T00:13:16;2.10;99.90
58951;DHT22;44730;53.158;6.398;2023-04-03T00:15:42;2.40;99.90
58951;DHT22;44730;53.158;6.398;2023-04-03T00:18:08;2.10;99.90
58951;DHT22;44730;53.158;6.398;2023-04-03T00:20:34;2.10;99.90
58951;DHT22;44730;53.158;6.398;2023-04-03T00:23:01;2.10;99.90
58951;DHT22;44730;53.158;6.398;2023-04-03T00:25:26;2.10;99.90
58951;DHT22;44730;53.158;6.398;2023-04-03T00:27:53;2.10;99.90
58951;DHT22;44730;53.158;6.398;2023-04-03T00:30:20;2.00;99.90
58951;DHT22;44730;53.158;6.398;2023-04-03T00:32:50;2.00;99.90
58951;DHT22;44730;53.158;6.398;2023-04-03T00:35:17;2.00;99.90
58951;DHT22;44730;53.158;6.398;2023-04-03T00:37:43;1.90;99.90
58951;DHT22;44730;53.158;6.398;2023-04-03T00:40:10;1.90;99.90
58951;DHT22;44730;53.158;6.398;2023-04-03T00:42:37;1.80;99.90
58951;DHT22;44730;53.158;6.398;2023-04-03T00:47:31;1.80;99.90
58951;DHT22;44730;53.158;6.398;2023-04-03T00:49:57;1.70;99.90
58951;DHT22;44730;53.158;6.398;2023-04-03T00:52:27;1.90;99.90
58951;DHT22;44730;53.158;6.398;2023-04-03T00:54:57;1.60;99.90
58951;DHT22;44730;53.158;6.398;2023-04-03T00:57:26;1.60;99.90
58951;DHT22;44730;53.158;6.398;2023-04-03T00:59:59;1.70;99.90
58951;DHT22;44730;53.158;6.398;2023-04-03T01:02:25;1.50;99.90
58951;DHT22;44730;53.158;6.398;2023-04-03T01:04:51;1.50;99.90
58951;DHT22;44730;53.158;6.398;2023-04-03T01:07:21;1.50;99.90
58951;DHT22;44730;53.158;6.398;2023-04-03T01:09:48;1.40;99.90
58951;DHT22;44730;53.158;6.398;2023-04-03T01:14:45;1.40;99.90
58951;DHT22;44730;53.158;6.398;2023-04-03T01:17:37;1.30;99.90
58951;DHT22;44730;53.158;6.398;2023-04-03T01:20:23;1.30;99.90
58951;DHT22;44730;53.158;6.398;2023-04-03T01:25:28;1.50;99.90
58951;DHT22;44730;53.158;6.398;2023-04-03T01:27:54;1.10;99.90
58951;DHT22;44730;53.158;6.398;2023-04-03T01:30:25;1.10;99.90
58951;DHT22;44730;53.158;6.398;2023-04-03T01:32:53;1.10;99.90
58951;DHT22;44730;53.158;6.398;2023-04-03T01:35:19;1.00;99.90
58951;DHT22;44730;53.158;6.398;2023-04-03T01:37:44;1.00;99.90
58951;DHT22;44730;53.158;6.398;2023-04-03T01:40:10;1.00;99.90
58951;DHT22;44730;53.158;6.398;2023-04-03T01:42:36;0.90;99.90
58951;DHT22;44730;53.158;6.398;2023-04-03T01:45:02;0.90;99.90
58951;DHT22;44730;53.158;6.398;2023-04-03T01:47:28;0.90;99.90
58951;DHT22;44730;53.158;6.398;2023-04-03T01:49:54;0.80;99.90
58951;DHT22;44730;53.158;6.398;2023-04-03T01:52:19;0.80;99.90
58951;DHT22;44730;53.158;6.398;2023-04-03T01:54:45;0.70;99.90
58951;DHT22;44730;53.158;6.398;2023-04-03T01:57:11;0.70;99.90
58951;DHT22;44730;53.158;6.398;2023-04-03T01:59:37;0.60;99.90
58951;DHT22;44730;53.158;6.398;2023-04-03T02:02:02;0.60;99.90
58951;DHT22;44730;53.158;6.398;2023-04-03T02:04:28;0.60;99.90
58951;DHT22;44730;53.158;6.398;2023-04-03T02:06:54;0.60;99.90
58951;DHT22;44730;53.158;6.398;2023-04-03T02:09:19;0.50;99.90
58951;DHT22;44730;53.158;6.398;2023-04-03T02:11:45;0.40;99.90
58951;DHT22;44730;53.158;6.398;2023-04-03T02:14:11;0.40;99.90
58951;DHT22;44730;53.158;6.398;2023-04-03T02:16:36;0.40;99.90
58951;DHT22;44730;53.158;6.398;2023-04-03T02:19:02;0.40;99.90
58951;DHT22;44730;53.158;6.398;2023-04-03T02:21:30;0.30;99.90
58951;DHT22;44730;53.158;6.398;2023-04-03T02:23:55;0.50;99.90
58951;DHT22;44730;53.158;6.398;2023-04-03T02:26:21;0.20;99.90
58951;DHT22;44730;53.158;6.398;2023-04-03T02:28:47;0.10;99.90
58951;DHT22;44730;53.158;6.398;2023-04-03T02:31:13;0.10;99.90
58951;DHT22;44730;53.158;6.398;2023-04-03T02:33:39;0.10;99.90
58951;DHT22;44730;53.158;6.398;2023-04-03T02:36:06;0.00;99.90
58951;DHT22;44730;53.158;6.398;2023-04-03T02:38:32;0.00;99.90
58951;DHT22;44730;53.158;6.398;2023-04-03T02:41:03;-0.10;99.90
58951;DHT22;44730;53.158;6.398;2023-04-03T02:43:29;-0.10;99.90
58951;DHT22;44730;53.158;6.398;2023-04-03T02:46:01;-0.10;99.90
58951;DHT22;44730;53.158;6.398;2023-04-03T02:48:26;-0.20;99.90
58951;DHT22;44730;53.158;6.398;2023-04-03T02:50:53;-0.20;99.90
58951;DHT22;44730;53.158;6.398;2023-04-03T02:53:19;-0.30;99.90
58951;DHT22;44730;53.158;6.398;2023-04-03T02:55:45;-0.30;99.90
58951;DHT22;44730;53.158;6.398;2023-04-03T02:58:11;-0.30;99.90
58951;DHT22;44730;53.158;6.398;2023-04-03T03:00:37;-0.30;99.90
58951;DHT22;44730;53.158;6.398;2023-04-03T03:03:03;-0.40;99.90
58951;DHT22;44730;53.158;6.398;2023-04-03T03:05:29;-0.40;99.90
58951;DHT22;44730;53.158;6.398;2023-04-03T03:07:55;-0.40;99.90
58951;DHT22;44730;53.158;6.398;2023-04-03T03:10:21;-0.40;99.90
58951;DHT22;44730;53.158;6.398;2023-04-03T03:12:47;-0.40;99.90
58951;DHT22;44730;53.158;6.398;2023-04-03T03:15:13;-0.50;99.90
58951;DHT22;44730;53.158;6.398;2023-04-03T03:17:38;-0.50;99.90
58951;DHT22;44730;53.158;6.398;2023-04-03T03:20:05;-0.60;99.90
58951;DHT22;44730;53.158;6.398;2023-04-03T03:22:34;-0.60;99.90
58951;DHT22;44730;53.158;6.398;2023-04-03T03:25:00;-0.70;99.90
58951;DHT22;44730;53.158;6.398;2023-04-03T03:27:26;-0.70;99.90
58951;DHT22;44730;53.158;6.398;2023-04-03T03:29:52;-0.80;99.90
58951;DHT22;44730;53.158;6.398;2023-04-03T03:32:18;-0.80;99.90
58951;DHT22;44730;53.158;6.398;2023-04-03T03:34:43;-0.80;99.90
58951;DHT22;44730;53.158;6.398;2023-04-03T03:37:09;-0.90;99.90
58951;DHT22;44730;53.158;6.398;2023-04-03T03:39:35;-0.90;99.90
58951;DHT22;44730;53.158;6.398;2023-04-03T03:42:01;-0.90;99.90
58951;DHT22;44730;53.158;6.398;2023-04-03T03:44:26;-0.40;99.90
58951;DHT22;44730;53.158;6.398;2023-04-03T03:46:54;-1.00;99.90
58951;DHT22;44730;53.158;6.398;2023-04-03T03:49:22;-1.00;99.90
58951;DHT22;44730;53.158;6.398;2023-04-03T03:51:47;-1.00;99.90
58951;DHT22;44730;53.158;6.398;2023-04-03T03:54:13;-1.10;99.90
58951;DHT22;44730;53.158;6.398;2023-04-03T03:56:39;-1.10;99.90
58951;DHT22;44730;53.158;6.398;2023-04-03T03:59:05;-1.10;99.90
58951;DHT22;44730;53.158;6.398;2023-04-03T04:01:31;-1.10;99.90
58951;DHT22;44730;53.158;6.398;2023-04-03T04:03:57;-1.10;99.90
58951;DHT22;44730;53.158;6.398;2023-04-03T04:06:23;-1.10;99.90
58951;DHT22;44730;53.158;6.398;2023-04-03T04:08:50;-1.10;99.90
58951;DHT22;44730;53.158;6.398;2023-04-03T04:11:15;-1.10;99.90
58951;DHT22;44730;53.158;6.398;2023-04-03T04:13:41;-1.00;99.90
58951;DHT22;44730;53.158;6.398;2023-04-03T04:16:07;-1.00;99.90
58951;DHT22;44730;53.158;6.398;2023-04-03T04:18:33;-1.00;99.90
58951;DHT22;44730;53.158;6.398;2023-04-03T04:20:59;-1.00;99.90
58951;DHT22;44730;53.158;6.398;2023-04-03T04:23:25;-1.00;99.90
58951;DHT22;44730;53.158;6.398;2023-04-03T04:25:51;-0.90;99.90
58951;DHT22;44730;53.158;6.398;2023-04-03T04:28:17;-0.70;99.90
58951;DHT22;44730;53.158;6.398;2023-04-03T04:30:43;-0.90;99.90
58951;DHT22;44730;53.158;6.398;2023-04-03T04:33:08;-0.90;99.90
58951;DHT22;44730;53.158;6.398;2023-04-03T04:35:35;-0.70;99.90
58951;DHT22;44730;53.158;6.398;2023-04-03T04:38:01;-0.90;99.90
58951;DHT22;44730;53.158;6.398;2023-04-03T04:40:28;-0.90;99.90
58951;DHT22;44730;53.158;6.398;2023-04-03T04:42:54;-1.00;99.90
58951;DHT22;44730;53.158;6.398;2023-04-03T04:45:20;-1.00;99.90
58951;DHT22;44730;53.158;6.398;2023-04-03T04:47:46;-0.60;99.90
58951;DHT22;44730;53.158;6.398;2023-04-03T04:50:13;-1.00;99.90
58951;DHT22;44730;53.158;6.398;2023-04-03T04:52:39;-1.00;99.90
58951;DHT22;44730;53.158;6.398;2023-04-03T04:55:05;-1.00;99.90
58951;DHT22;44730;53.158;6.398;2023-04-03T04:57:31;-1.10;99.90
58951;DHT22;44730;53.158;6.398;2023-04-03T04:59:56;-1.00;99.90
58951;DHT22;44730;53.158;6.398;2023-04-03T05:02:22;-1.10;99.90
58951;DHT22;44730;53.158;6.398;2023-04-03T05:04:48;-1.10;99.90
58951;DHT22;44730;53.158;6.398;2023-04-03T05:07:15;-1.10;99.90
58951;DHT22;44730;53.158;6.398;2023-04-03T05:09:41;-1.10;99.90
58951;DHT22;44730;53.158;6.398;2023-04-03T05:12:08;-1.20;99.90
58951;DHT22;44730;53.158;6.398;2023-04-03T05:14:33;-1.10;99.90
58951;DHT22;44730;53.158;6.398;2023-04-03T05:16:59;-1.10;99.90
58951;DHT22;44730;53.158;6.398;2023-04-03T05:19:25;-1.20;99.90
58951;DHT22;44730;53.158;6.398;2023-04-03T05:21:50;-0.90;99.90
58951;DHT22;44730;53.158;6.398;2023-04-03T05:24:16;-1.20;99.90
58951;DHT22;44730;53.158;6.398;2023-04-03T05:26:51;-1.00;99.90
58951;DHT22;44730;53.158;6.398;2023-04-03T05:29:17;-1.20;99.90
58951;DHT22;44730;53.158;6.398;2023-04-03T05:31:43;-1.10;99.90
58951;DHT22;44730;53.158;6.398;2023-04-03T05:34:09;-1.10;99.90
58951;DHT22;44730;53.158;6.398;2023-04-03T05:36:35;-1.10;99.90
58951;DHT22;44730;53.158;6.398;2023-04-03T05:39:01;-1.10;99.90
58951;DHT22;44730;53.158;6.398;2023-04-03T05:41:26;-1.10;99.90
58951;DHT22;44730;53.158;6.398;2023-04-03T05:43:52;-1.00;99.90
58951;DHT22;44730;53.158;6.398;2023-04-03T05:46:19;-1.00;99.90
58951;DHT22;44730;53.158;6.398;2023-04-03T05:48:46;-0.90;99.90
58951;DHT22;44730;53.158;6.398;2023-04-03T05:51:23;-0.30;99.90
58951;DHT22;44730;53.158;6.398;2023-04-03T05:53:58;-0.90;99.90
58951;DHT22;44730;53.158;6.398;2023-04-03T05:56:25;-0.80;99.90
58951;DHT22;44730;53.158;6.398;2023-04-03T05:58:51;-0.80;99.90
58951;DHT22;44730;53.158;6.398;2023-04-03T06:01:16;-0.70;99.90
58951;DHT22;44730;53.158;6.398;2023-04-03T06:03:42;-0.40;99.90
58951;DHT22;44730;53.158;6.398;2023-04-03T06:06:13;-0.60;99.90
58951;DHT22;44730;53.158;6.398;2023-04-03T06:08:39;-0.60;99.90
58951;DHT22;44730;53.158;6.398;2023-04-03T06:11:05;-0.50;99.90
58951;DHT22;44730;53.158;6.398;2023-04-03T06:13:31;-0.50;99.90
58951;DHT22;44730;53.158;6.398;2023-04-03T06:15:57;-0.40;99.90
58951;DHT22;44730;53.158;6.398;2023-04-03T06:18:23;-0.30;99.90
58951;DHT22;44730;53.158;6.398;2023-04-03T06:20:48;-0.30;99.90
58951;DHT22;44730;53.158;6.398;2023-04-03T06:23:14;-0.20;99.90
58951;DHT22;44730;53.158;6.398;2023-04-03T06:25:40;-0.20;99.90
58951;DHT22;44730;53.158;6.398;2023-04-03T06:28:06;0.10;99.90
58951;DHT22;44730;53.158;6.398;2023-04-03T06:30:34;0.10;99.90
58951;DHT22;44730;53.158;6.398;2023-04-03T06:33:00;0.20;99.90
58951;DHT22;44730;53.158;6.398;2023-04-03T06:35:26;0.40;99.90
58951;DHT22;44730;53.158;6.398;2023-04-03T06:37:54;0.60;99.90
58951;DHT22;44730;53.158;6.398;2023-04-03T06:40:23;0.90;99.90
58951;DHT22;44730;53.158;6.398;2023-04-03T06:42:49;1.10;99.90
58951;DHT22;44730;53.158;6.398;2023-04-03T06:45:15;1.40;99.90
58951;DHT22;44730;53.158;6.398;2023-04-03T06:47:42;1.60;99.90
58951;DHT22;44730;53.158;6.398;2023-04-03T06:50:10;1.80;99.90
58951;DHT22;44730;53.158;6.398;2023-04-03T06:52:37;2.10;99.90
58951;DHT22;44730;53.158;6.398;2023-04-03T06:55:05;2.40;99.90
58951;DHT22;44730;53.158;6.398;2023-04-03T06:57:31;2.60;99.90
58951;DHT22;44730;53.158;6.398;2023-04-03T06:59:56;2.90;99.90
58951;DHT22;44730;53.158;6.398;2023-04-03T07:02:22;3.20;99.90
58951;DHT22;44730;53.158;6.398;2023-04-03T07:04:48;3.30;99.90
58951;DHT22;44730;53.158;6.398;2023-04-03T07:07:14;3.50;99.90
58951;DHT22;44730;53.158;6.398;2023-04-03T07:09:40;3.70;99.90
58951;DHT22;44730;53.158;6.398;2023-04-03T07:12:07;4.00;99.90
58951;DHT22;44730;53.158;6.398;2023-04-03T07:14:33;4.00;99.90
58951;DHT22;44730;53.158;6.398;2023-04-03T07:16:58;4.20;99.90
58951;DHT22;44730;53.158;6.398;2023-04-03T07:19:24;4.30;99.90
58951;DHT22;44730;53.158;6.398;2023-04-03T07:21:53;4.50;99.90
58951;DHT22;44730;53.158;6.398;2023-04-03T07:24:19;4.70;99.90
58951;DHT22;44730;53.158;6.398;2023-04-03T07:26:50;4.90;99.90
58951;DHT22;44730;53.158;6.398;2023-04-03T07:29:16;5.00;99.90
58951;DHT22;44730;53.158;6.398;2023-04-03T07:31:42;5.10;99.90
58951;DHT22;44730;53.158;6.398;2023-04-03T07:34:10;5.50;99.90
58951;DHT22;44730;53.158;6.398;2023-04-03T07:36:36;5.80;99.90
58951;DHT22;44730;53.158;6.398;2023-04-03T07:39:03;6.20;99.90
58951;DHT22;44730;53.158;6.398;2023-04-03T07:41:29;6.30;99.90
58951;DHT22;44730;53.158;6.398;2023-04-03T07:43:56;6.50;99.90
58951;DHT22;44730;53.158;6.398;2023-04-03T07:46:22;6.80;99.90
58951;DHT22;44730;53.158;6.398;2023-04-03T07:48:48;6.80;99.90
58951;DHT22;44730;53.158;6.398;2023-04-03T07:51:14;7.00;99.90
58951;DHT22;44730;53.158;6.398;2023-04-03T07:53:40;7.10;99.90
58951;DHT22;44730;53.158;6.398;2023-04-03T07:56:07;7.50;99.90
58951;DHT22;44730;53.158;6.398;2023-04-03T07:58:33;7.80;99.90
58951;DHT22;44730;53.158;6.398;2023-04-03T08:00:59;8.10;99.90
58951;DHT22;44730;53.158;6.398;2023-04-03T08:03:25;8.40;99.90
58951;DHT22;44730;53.158;6.398;2023-04-03T08:05:50;8.50;99.90
58951;DHT22;44730;53.158;6.398;2023-04-03T08:08:19;9.00;99.90
58951;DHT22;44730;53.158;6.398;2023-04-03T08:10:50;9.30;99.90
58951;DHT22;44730;53.158;6.398;2023-04-03T08:13:16;9.20;99.90
58951;DHT22;44730;53.158;6.398;2023-04-03T08:15:42;9.60;99.90
58951;DHT22;44730;53.158;6.398;2023-04-03T08:18:09;9.70;99.90
58951;DHT22;44730;53.158;6.398;2023-04-03T08:20:35;10.00;99.90
58951;DHT22;44730;53.158;6.398;2023-04-03T08:23:00;9.90;99.90
58951;DHT22;44730;53.158;6.398;2023-04-03T08:25:26;9.80;99.90
58951;DHT22;44730;53.158;6.398;2023-04-03T08:27:52;9.70;99.90
58951;DHT22;44730;53.158;6.398;2023-04-03T08:30:17;9.50;99.90
58951;DHT22;44730;53.158;6.398;2023-04-03T08:32:44;9.30;99.90
58951;DHT22;44730;53.158;6.398;2023-04-03T08:35:11;9.60;99.90
58951;DHT22;44730;53.158;6.398;2023-04-03T08:37:38;9.80;99.90
58951;DHT22;44730;53.158;6.398;2023-04-03T08:40:06;9.80;99.90
58951;DHT22;44730;53.158;6.398;2023-04-03T08:42:56;9.70;98.50
58951;DHT22;44730;53.158;6.398;2023-04-03T08:48:31;9.90;98.10
58951;DHT22;44730;53.158;6.398;2023-04-03T08:51:02;9.70;95.80
58951;DHT22;44730;53.158;6.398;2023-04-03T08:53:34;9.70;95.30
58951;DHT22;44730;53.158;6.398;2023-04-03T08:56:08;9.90;97.00
58951;DHT22;44730;53.158;6.398;2023-04-03T08:59:03;10.30;96.20
58951;DHT22;44730;53.158;6.398;2023-04-03T09:01:36;10.60;95.80
58951;DHT22;44730;53.158;6.398;2023-04-03T09:04:13;10.80;97.10
58951;DHT22;44730;53.158;6.398;2023-04-03T09:06:40;11.10;94.10
58951;DHT22;44730;53.158;6.398;2023-04-03T09:17:46;10.90;90.90
58951;DHT22;44730;53.158;6.398;2023-04-03T09:20:41;10.90;91.10
58951;DHT22;44730;53.158;6.398;2023-04-03T09:23:38;10.70;85.30
58951;DHT22;44730;53.158;6.398;2023-04-03T09:26:18;10.50;80.20
58951;DHT22;44730;53.158;6.398;2023-04-03T09:28:45;10.70;84.90
58951;DHT22;44730;53.158;6.398;2023-04-03T09:31:38;10.80;86.80
58951;DHT22;44730;53.158;6.398;2023-04-03T09:34:41;10.90;84.90
58951;DHT22;44730;53.158;6.398;2023-04-03T09:37:06;10.90;81.90
58951;DHT22;44730;53.158;6.398;2023-04-03T09:39:54;11.20;85.60
58951;DHT22;44730;53.158;6.398;2023-04-03T09:42:25;11.20;82.40
58951;DHT22;44730;53.158;6.398;2023-04-03T09:44:57;11.20;83.40
58951;DHT22;44730;53.158;6.398;2023-04-03T09:49:48;11.80;85.00
58951;DHT22;44730;53.158;6.398;2023-04-03T09:52:25;12.20;86.30
58951;DHT22;44730;53.158;6.398;2023-04-03T09:54:51;12.20;76.10
58951;DHT22;44730;53.158;6.398;2023-04-03T09:57:17;12.10;79.30
58951;DHT22;44730;53.158;6.398;2023-04-03T09:59:58;12.30;81.50
58951;DHT22;44730;53.158;6.398;2023-04-03T10:02:34;12.40;73.00
58951;DHT22;44730;53.158;6.398;2023-04-03T10:05:00;12.60;78.90
58951;DHT22;44730;53.158;6.398;2023-04-03T10:07:33;12.80;78.70
58951;DHT22;44730;53.158;6.398;2023-04-03T10:10:22;13.20;78.50
58951;DHT22;44730;53.158;6.398;2023-04-03T10:13:02;13.30;77.00
58951;DHT22;44730;53.158;6.398;2023-04-03T10:15:30;13.40;78.10
58951;DHT22;44730;53.158;6.398;2023-04-03T10:18:30;13.40;73.60
58951;DHT22;44730;53.158;6.398;2023-04-03T10:21:05;13.30;71.50
58951;DHT22;44730;53.158;6.398;2023-04-03T10:23:45;13.60;72.70
58951;DHT22;44730;53.158;6.398;2023-04-03T10:28:56;14.30;75.50
58951;DHT22;44730;53.158;6.398;2023-04-03T10:31:44;14.40;69.10
58951;DHT22;44730;53.158;6.398;2023-04-03T10:34:28;14.50;66.40
58951;DHT22;44730;53.158;6.398;2023-04-03T10:37:34;14.60;66.50
58951;DHT22;44730;53.158;6.398;2023-04-03T10:40:22;14.80;66.20
58951;DHT22;44730;53.158;6.398;2023-04-03T10:48:11;15.10;65.10
58951;DHT22;44730;53.158;6.398;2023-04-03T10:50:45;15.40;65.30
58951;DHT22;44730;53.158;6.398;2023-04-03T10:56:18;15.50;62.40
58951;DHT22;44730;53.158;6.398;2023-04-03T11:01:56;15.60;59.40
58951;DHT22;44730;53.158;6.398;2023-04-03T11:04:27;15.60;60.50
58951;DHT22;44730;53.158;6.398;2023-04-03T11:07:08;15.90;61.50
58951;DHT22;44730;53.158;6.398;2023-04-03T11:09:41;16.10;61.80
58951;DHT22;44730;53.158;6.398;2023-04-03T11:12:15;16.30;60.70
58951;DHT22;44730;53.158;6.398;2023-04-03T11:14:42;16.20;58.00
58951;DHT22;44730;53.158;6.398;2023-04-03T11:19:59;16.20;54.80
58951;DHT22;44730;53.158;6.398;2023-04-03T11:22:29;16.80;56.30
58951;DHT22;44730;53.158;6.398;2023-04-03T11:27:43;16.60;56.10
58951;DHT22;44730;53.158;6.398;2023-04-03T11:30:24;16.80;52.90
58951;DHT22;44730;53.158;6.398;2023-04-03T11:35:32;16.40;49.00
58951;DHT22;44730;53.158;6.398;2023-04-03T11:38:00;16.30;52.10
58951;DHT22;44730;53.158;6.398;2023-04-03T11:40:28;16.30;52.10
58951;DHT22;44730;53.158;6.398;2023-04-03T11:45:26;16.60;52.20
58951;DHT22;44730;53.158;6.398;2023-04-03T11:47:54;17.00;53.40
58951;DHT22;44730;53.158;6.398;2023-04-03T11:50:42;17.20;52.80
58951;DHT22;44730;53.158;6.398;2023-04-03T11:58:27;17.30;50.00
58951;DHT22;44730;53.158;6.398;2023-04-03T12:00:56;16.70;50.30
58951;DHT22;44730;53.158;6.398;2023-04-03T12:18:58;18.80;49.20
58951;DHT22;44730;53.158;6.398;2023-04-03T12:29:02;17.60;49.30
58951;DHT22;44730;53.158;6.398;2023-04-03T12:31:55;18.30;50.00
58951;DHT22;44730;53.158;6.398;2023-04-03T12:48:38;18.50;46.20
58951;DHT22;44730;53.158;6.398;2023-04-03T12:51:05;17.90;47.30
58951;DHT22;44730;53.158;6.398;2023-04-03T12:53:36;17.90;48.10
58951;DHT22;44730;53.158;6.398;2023-04-03T12:56:22;17.70;47.10
58951;DHT22;44730;53.158;6.398;2023-04-03T12:58:50;17.80;47.30
58951;DHT22;44730;53.158;6.398;2023-04-03T13:01:20;17.60;48.20
58951;DHT22;44730;53.158;6.398;2023-04-03T13:03:55;17.80;48.30
58951;DHT22;44730;53.158;6.398;2023-04-03T13:06:28;17.90;47.30
58951;DHT22;44730;53.158;6.398;2023-04-03T13:08:58;17.80;48.10
58951;DHT22;44730;53.158;6.398;2023-04-03T13:11:32;18.10;47.30
58951;DHT22;44730;53.158;6.398;2023-04-03T13:14:15;18.60;46.60
58951;DHT22;44730;53.158;6.398;2023-04-03T13:16:41;18.70;45.40
58951;DHT22;44730;53.158;6.398;2023-04-03T13:19:17;18.50;45.60
58951;DHT22;44730;53.158;6.398;2023-04-03T13:21:43;18.50;46.20
58951;DHT22;44730;53.158;6.398;2023-04-03T13:24:11;18.80;46.60
58951;DHT22;44730;53.158;6.398;2023-04-03T13:26:37;19.20;45.90
58951;DHT22;44730;53.158;6.398;2023-04-03T13:29:07;19.30;45.80
58951;DHT22;44730;53.158;6.398;2023-04-03T13:31:44;18.90;44.90
58951;DHT22;44730;53.158;6.398;2023-04-03T13:41:45;18.20;46.10
58951;DHT22;44730;53.158;6.398;2023-04-03T13:44:27;18.70;47.50
58951;DHT22;44730;53.158;6.398;2023-04-03T13:46:56;18.70;44.30
58951;DHT22;44730;53.158;6.398;2023-04-03T13:51:54;18.50;45.60
58951;DHT22;44730;53.158;6.398;2023-04-03T13:54:23;18.70;46.80
58951;DHT22;44730;53.158;6.398;2023-04-03T13:56:57;19.20;46.60
58951;DHT22;44730;53.158;6.398;2023-04-03T13:59:31;19.20;44.90
58951;DHT22;44730;53.158;6.398;2023-04-03T14:04:31;18.30;45.70
58951;DHT22;44730;53.158;6.398;2023-04-03T14:06:58;18.10;45.70
58951;DHT22;44730;53.158;6.398;2023-04-03T14:09:26;17.90;45.70
58951;DHT22;44730;53.158;6.398;2023-04-03T14:11:55;18.40;44.20
58951;DHT22;44730;53.158;6.398;2023-04-03T14:14:26;18.10;45.20
58951;DHT22;44730;53.158;6.398;2023-04-03T14:16:57;18.20;45.20
58951;DHT22;44730;53.158;6.398;2023-04-03T14:19:31;17.90;45.20
58951;DHT22;44730;53.158;6.398;2023-04-03T14:21:59;17.90;45.40
58951;DHT22;44730;53.158;6.398;2023-04-03T14:24:25;18.30;46.60
58951;DHT22;44730;53.158;6.398;2023-04-03T14:26:52;18.00;46.10
58951;DHT22;44730;53.158;6.398;2023-04-03T14:29:19;18.10;46.30
58951;DHT22;44730;53.158;6.398;2023-04-03T14:31:47;18.10;46.80
58951;DHT22;44730;53.158;6.398;2023-04-03T14:34:14;18.10;47.60
58951;DHT22;44730;53.158;6.398;2023-04-03T14:36:41;18.10;47.70
58951;DHT22;44730;53.158;6.398;2023-04-03T14:39:16;18.10;49.00
58951;DHT22;44730;53.158;6.398;2023-04-03T14:41:43;17.50;49.00
58951;DHT22;44730;53.158;6.398;2023-04-03T14:44:09;17.00;48.40
58951;DHT22;44730;53.158;6.398;2023-04-03T14:46:36;17.20;48.00
58951;DHT22;44730;53.158;6.398;2023-04-03T14:49:14;17.00;48.10
58951;DHT22;44730;53.158;6.398;2023-04-03T14:51:40;16.80;48.40
58951;DHT22;44730;53.158;6.398;2023-04-03T14:54:18;16.60;50.20
58951;DHT22;44730;53.158;6.398;2023-04-03T14:56:45;16.70;49.70
58951;DHT22;44730;53.158;6.398;2023-04-03T14:59:12;16.60;50.10
58951;DHT22;44730;53.158;6.398;2023-04-03T15:01:39;17.10;49.80
58951;DHT22;44730;53.158;6.398;2023-04-03T15:04:16;17.20;50.00
58951;DHT22;44730;53.158;6.398;2023-04-03T15:06:42;17.10;48.80
58951;DHT22;44730;53.158;6.398;2023-04-03T15:09:26;17.00;49.20
58951;DHT22;44730;53.158;6.398;2023-04-03T15:11:54;16.20;48.30
58951;DHT22;44730;53.158;6.398;2023-04-03T15:14:20;16.30;49.60
58951;DHT22;44730;53.158;6.398;2023-04-03T15:16:46;16.40;51.40
58951;DHT22;44730;53.158;6.398;2023-04-03T15:19:12;16.90;51.00
58951;DHT22;44730;53.158;6.398;2023-04-03T15:21:39;16.30;50.50
58951;DHT22;44730;53.158;6.398;2023-04-03T15:24:05;16.60;51.00
58951;DHT22;44730;53.158;6.398;2023-04-03T15:26:31;16.60;50.70
58951;DHT22;44730;53.158;6.398;2023-04-03T15:28:57;17.00;51.70
58951;DHT22;44730;53.158;6.398;2023-04-03T15:31:23;17.30;51.70
58951;DHT22;44730;53.158;6.398;2023-04-03T15:33:48;17.00;51.40
58951;DHT22;44730;53.158;6.398;2023-04-03T15:36:14;17.00;51.60
58951;DHT22;44730;53.158;6.398;2023-04-03T15:38:40;17.00;51.90
58951;DHT22;44730;53.158;6.398;2023-04-03T15:41:05;16.50;52.40
58951;DHT22;44730;53.158;6.398;2023-04-03T15:43:31;16.60;51.60
58951;DHT22;44730;53.158;6.398;2023-04-03T15:45:59;16.70;51.70
58951;DHT22;44730;53.158;6.398;2023-04-03T15:48:27;16.50;51.70
58951;DHT22;44730;53.158;6.398;2023-04-03T15:50:53;16.20;51.00
58951;DHT22;44730;53.158;6.398;2023-04-03T15:53:20;15.40;50.80
58951;DHT22;44730;53.158;6.398;2023-04-03T15:55:45;14.40;52.10
58951;DHT22;44730;53.158;6.398;2023-04-03T15:58:11;13.40;52.60
58951;DHT22;44730;53.158;6.398;2023-04-03T16:00:38;12.70;53.50
58951;DHT22;44730;53.158;6.398;2023-04-03T16:03:12;12.20;54.10
58951;DHT22;44730;53.158;6.398;2023-04-03T16:05:39;11.60;55.60
58951;DHT22;44730;53.158;6.398;2023-04-03T16:08:06;11.10;57.40
58951;DHT22;44730;53.158;6.398;2023-04-03T16:10:38;10.60;59.60
58951;DHT22;44730;53.158;6.398;2023-04-03T16:13:04;10.20;61.70
58951;DHT22;44730;53.158;6.398;2023-04-03T16:15:31;9.90;63.20
58951;DHT22;44730;53.158;6.398;2023-04-03T16:17:59;9.50;62.60
58951;DHT22;44730;53.158;6.398;2023-04-03T16:20:26;9.30;63.60
58951;DHT22;44730;53.158;6.398;2023-04-03T16:22:52;9.00;65.10
58951;DHT22;44730;53.158;6.398;2023-04-03T16:25:18;8.80;65.30
58951;DHT22;44730;53.158;6.398;2023-04-03T16:27:44;8.80;66.50
58951;DHT22;44730;53.158;6.398;2023-04-03T16:30:10;8.60;66.40
58951;DHT22;44730;53.158;6.398;2023-04-03T16:32:37;8.60;67.40
58951;DHT22;44730;53.158;6.398;2023-04-03T16:35:04;8.40;67.70
58951;DHT22;44730;53.158;6.398;2023-04-03T16:37:30;8.30;68.10
58951;DHT22;44730;53.158;6.398;2023-04-03T16:39:56;8.20;68.70
58951;DHT22;44730;53.158;6.398;2023-04-03T16:42:24;8.10;68.70
58951;DHT22;44730;53.158;6.398;2023-04-03T16:44:50;7.90;69.50
58951;DHT22;44730;53.158;6.398;2023-04-03T16:47:16;7.80;70.20
58951;DHT22;44730;53.158;6.398;2023-04-03T16:49:45;7.80;69.90
58951;DHT22;44730;53.158;6.398;2023-04-03T16:52:10;7.70;71.60
58951;DHT22;44730;53.158;6.398;2023-04-03T16:54:36;7.60;71.60
58951;DHT22;44730;53.158;6.398;2023-04-03T16:57:02;7.50;71.90
58951;DHT22;44730;53.158;6.398;2023-04-03T16:59:30;7.40;72.70
58951;DHT22;44730;53.158;6.398;2023-04-03T17:01:55;7.40;73.30
58951;DHT22;44730;53.158;6.398;2023-04-03T17:04:21;7.30;73.10
58951;DHT22;44730;53.158;6.398;2023-04-03T17:06:47;7.30;74.40
58951;DHT22;44730;53.158;6.398;2023-04-03T17:09:13;7.20;74.90
58951;DHT22;44730;53.158;6.398;2023-04-03T17:11:39;7.10;75.20
58951;DHT22;44730;53.158;6.398;2023-04-03T17:14:05;7.10;75.90
58951;DHT22;44730;53.158;6.398;2023-04-03T17:16:33;7.00;77.00
58951;DHT22;44730;53.158;6.398;2023-04-03T17:19:00;6.90;76.90
58951;DHT22;44730;53.158;6.398;2023-04-03T17:21:26;6.80;77.40
58951;DHT22;44730;53.158;6.398;2023-04-03T17:24:02;6.70;78.70
58951;DHT22;44730;53.158;6.398;2023-04-03T17:26:29;6.70;79.10
58951;DHT22;44730;53.158;6.398;2023-04-03T17:28:55;6.60;80.50